עמוד ראשי
METAR-TAF:

METAR-TAF

שדות תעופה :

Sharjah, איחוד האמירויות הערביות

קו רוחב: 25-20N, קו אורך: 055-31E, גובה: 35מטר

תצפית מזג אוויר נוכחית

הדו"ח נערך לפני 39דקות, בשעה 20:00 UTC
רוח 4קשר מכיוון דרום/דרום-מערב, משתנה בין דרום ו מערב/דרום-מערב
טמפרטורת 36 צלסיוס
לחות 25%
לחץ 1000 hPa
ראות 10 קילומטר או יותר
ללא עננים שבסיסם נמוך מ 5000 רגל או קומולונימבוס

METAR: OMSJ 132000Z 20004KT 170V240 CAVOK 36/13 Q1000 NOSIG

זמן: 00:39 (20:39 UTC)

תחזית

הדו"ח נערך לפני 3 שעות ו 39דקות, בשעה 17:00 UTC
תחזית בתוקף מ 13 ב 18 UTC עד 15 ב 00 UTC
רוח 10קשר מכיוון מערב/דרום-מערב
ראות: 8000מטר
יעשה מ
13 ב 18 UTC עד 13 ב 20 UTC
רוח 8קשר מכיוון דרום
יעשה מ
14 ב 05 UTC עד 14 ב 07 UTC
רוח 14קשר מכיוון מערב
יעשה מ
14 ב 16 UTC עד 14 ב 18 UTC
רוח 6קשר מכיוון דרום

TAF: OMSJ 131700Z 1318/1500 25010KT 8000 NSC BECMG 1318/1320 19008KT BECMG 1405/1407 28014KT BECMG 1416/1418 18006KT

תצפיות ותחזיות מזג אוויר לגבי יותר מ- 4,000 שדות תעופה ברחבי העולם. דוחות METAR ו- TAF.

התחנות הזמינות מסומנות בנקודות צהובות ואדומות על גבי המפה.

העבר את העכבר לנקודה הצבעונית על מנת לראות את שם התחנה.

לאחר מכן, לחץ כדי לראות את תוכן ואת תחזיות מזג האוויר.

כדי לשנות את המפה: לחץ על הכפתורים הירוקים עם הפלוס השחור כדי להתקרב; על הכפתור הירוק עם המקף כדי להתרחק; או בחיצים הירוקים למפות סמוכות.


METAR-TAF: